sensor_id;sensor_type;location;lat;lon;timestamp;P1;durP1;ratioP1;P2;durP2;ratioP2
72584;SDS011;73873;40.084;32.908;2024-02-21T00:01:57;11.70;;;4.05;;
72584;SDS011;73873;40.084;32.908;2024-02-21T00:04:29;11.73;;;4.57;;
72584;SDS011;73873;40.084;32.908;2024-02-21T00:06:59;11.55;;;4.65;;
72584;SDS011;73873;40.084;32.908;2024-02-21T00:09:26;11.13;;;4.23;;
72584;SDS011;73873;40.084;32.908;2024-02-21T00:12:12;14.85;;;5.00;;
72584;SDS011;73873;40.084;32.908;2024-02-21T00:14:39;13.02;;;4.90;;
72584;SDS011;73873;40.084;32.908;2024-02-21T00:17:07;11.85;;;4.70;;
72584;SDS011;73873;40.084;32.908;2024-02-21T00:19:34;12.93;;;5.38;;
72584;SDS011;73873;40.084;32.908;2024-02-21T00:22:01;13.63;;;5.00;;
72584;SDS011;73873;40.084;32.908;2024-02-21T00:24:28;14.70;;;5.68;;
72584;SDS011;73873;40.084;32.908;2024-02-21T00:26:55;15.85;;;6.10;;
72584;SDS011;73873;40.084;32.908;2024-02-21T00:29:23;14.43;;;6.03;;
72584;SDS011;73873;40.084;32.908;2024-02-21T00:31:50;15.05;;;6.68;;
72584;SDS011;73873;40.084;32.908;2024-02-21T00:34:41;13.20;;;5.13;;
72584;SDS011;73873;40.084;32.908;2024-02-21T00:37:07;12.88;;;4.90;;
72584;SDS011;73873;40.084;32.908;2024-02-21T00:39:34;16.90;;;6.50;;
72584;SDS011;73873;40.084;32.908;2024-02-21T00:42:01;15.65;;;5.63;;
72584;SDS011;73873;40.084;32.908;2024-02-21T00:44:28;13.88;;;5.47;;
72584;SDS011;73873;40.084;32.908;2024-02-21T00:47:01;13.63;;;6.00;;
72584;SDS011;73873;40.084;32.908;2024-02-21T00:49:32;13.57;;;5.68;;
72584;SDS011;73873;40.084;32.908;2024-02-21T00:52:02;14.13;;;5.50;;
72584;SDS011;73873;40.084;32.908;2024-02-21T00:54:29;13.55;;;5.50;;
72584;SDS011;73873;40.084;32.908;2024-02-21T00:57:16;14.82;;;5.20;;
72584;SDS011;73873;40.084;32.908;2024-02-21T00:59:48;13.50;;;5.10;;
72584;SDS011;73873;40.084;32.908;2024-02-21T01:02:16;13.88;;;5.53;;
72584;SDS011;73873;40.084;32.908;2024-02-21T01:04:45;12.73;;;4.80;;
72584;SDS011;73873;40.084;32.908;2024-02-21T01:07:15;13.40;;;5.32;;
72584;SDS011;73873;40.084;32.908;2024-02-21T01:09:42;13.02;;;5.20;;
72584;SDS011;73873;40.084;32.908;2024-02-21T01:12:09;13.23;;;5.40;;
72584;SDS011;73873;40.084;32.908;2024-02-21T01:14:36;14.00;;;6.03;;
72584;SDS011;73873;40.084;32.908;2024-02-21T01:17:04;14.73;;;5.68;;
72584;SDS011;73873;40.084;32.908;2024-02-21T01:19:31;15.15;;;5.75;;
72584;SDS011;73873;40.084;32.908;2024-02-21T01:22:01;15.15;;;6.60;;
72584;SDS011;73873;40.084;32.908;2024-02-21T01:24:28;14.57;;;6.00;;
72584;SDS011;73873;40.084;32.908;2024-02-21T01:26:55;16.10;;;6.15;;
72584;SDS011;73873;40.084;32.908;2024-02-21T01:29:22;14.57;;;6.18;;
72584;SDS011;73873;40.084;32.908;2024-02-21T01:31:51;13.82;;;5.80;;
72584;SDS011;73873;40.084;32.908;2024-02-21T01:34:18;13.60;;;5.95;;
72584;SDS011;73873;40.084;32.908;2024-02-21T01:36:49;11.77;;;4.97;;
72584;SDS011;73873;40.084;32.908;2024-02-21T01:39:17;13.25;;;5.28;;
72584;SDS011;73873;40.084;32.908;2024-02-21T01:41:47;13.63;;;5.63;;
72584;SDS011;73873;40.084;32.908;2024-02-21T01:44:20;12.90;;;5.22;;
72584;SDS011;73873;40.084;32.908;2024-02-21T01:46:47;13.05;;;5.22;;
72584;SDS011;73873;40.084;32.908;2024-02-21T01:49:14;13.80;;;5.80;;
72584;SDS011;73873;40.084;32.908;2024-02-21T01:51:42;13.07;;;5.80;;
72584;SDS011;73873;40.084;32.908;2024-02-21T01:54:31;16.15;;;6.20;;
72584;SDS011;73873;40.084;32.908;2024-02-21T01:56:58;15.43;;;6.07;;
72584;SDS011;73873;40.084;32.908;2024-02-21T01:59:25;14.55;;;5.85;;
72584;SDS011;73873;40.084;32.908;2024-02-21T02:01:53;15.33;;;6.40;;
72584;SDS011;73873;40.084;32.908;2024-02-21T02:04:22;13.43;;;5.47;;
72584;SDS011;73873;40.084;32.908;2024-02-21T02:06:50;13.48;;;5.22;;
72584;SDS011;73873;40.084;32.908;2024-02-21T02:09:18;16.35;;;6.55;;
72584;SDS011;73873;40.084;32.908;2024-02-21T02:11:45;13.50;;;5.38;;
72584;SDS011;73873;40.084;32.908;2024-02-21T02:14:12;14.37;;;5.47;;
72584;SDS011;73873;40.084;32.908;2024-02-21T02:16:46;14.55;;;6.10;;
72584;SDS011;73873;40.084;32.908;2024-02-21T02:19:13;15.35;;;6.97;;
72584;SDS011;73873;40.084;32.908;2024-02-21T02:21:42;13.40;;;6.13;;
72584;SDS011;73873;40.084;32.908;2024-02-21T02:24:20;18.00;;;7.35;;
72584;SDS011;73873;40.084;32.908;2024-02-21T02:26:47;18.87;;;7.00;;
72584;SDS011;73873;40.084;32.908;2024-02-21T02:29:14;17.08;;;7.28;;
72584;SDS011;73873;40.084;32.908;2024-02-21T02:31:41;16.67;;;6.93;;
72584;SDS011;73873;40.084;32.908;2024-02-21T02:34:08;14.25;;;6.05;;
72584;SDS011;73873;40.084;32.908;2024-02-21T02:36:36;15.95;;;5.65;;
72584;SDS011;73873;40.084;32.908;2024-02-21T02:39:03;15.50;;;6.80;;
72584;SDS011;73873;40.084;32.908;2024-02-21T02:41:30;14.50;;;6.30;;
72584;SDS011;73873;40.084;32.908;2024-02-21T02:43:56;14.55;;;6.20;;
72584;SDS011;73873;40.084;32.908;2024-02-21T02:46:23;15.27;;;6.30;;
72584;SDS011;73873;40.084;32.908;2024-02-21T02:48:50;15.88;;;6.50;;
72584;SDS011;73873;40.084;32.908;2024-02-21T02:51:20;16.50;;;6.60;;
72584;SDS011;73873;40.084;32.908;2024-02-21T02:53:56;15.35;;;6.18;;
72584;SDS011;73873;40.084;32.908;2024-02-21T02:56:23;14.77;;;6.30;;
72584;SDS011;73873;40.084;32.908;2024-02-21T02:58:56;15.48;;;6.47;;
72584;SDS011;73873;40.084;32.908;2024-02-21T03:01:23;15.50;;;6.80;;
72584;SDS011;73873;40.084;32.908;2024-02-21T03:03:50;18.40;;;7.13;;
72584;SDS011;73873;40.084;32.908;2024-02-21T03:06:17;17.83;;;7.10;;
72584;SDS011;73873;40.084;32.908;2024-02-21T03:08:47;17.83;;;6.68;;
72584;SDS011;73873;40.084;32.908;2024-02-21T03:11:15;14.23;;;6.25;;
72584;SDS011;73873;40.084;32.908;2024-02-21T03:13:44;13.18;;;5.55;;
72584;SDS011;73873;40.084;32.908;2024-02-21T03:16:11;13.17;;;5.57;;
72584;SDS011;73873;40.084;32.908;2024-02-21T03:18:39;13.30;;;5.43;;
72584;SDS011;73873;40.084;32.908;2024-02-21T03:21:07;10.98;;;4.78;;
72584;SDS011;73873;40.084;32.908;2024-02-21T03:23:34;9.35;;;3.97;;
72584;SDS011;73873;40.084;32.908;2024-02-21T03:26:01;15.95;;;6.35;;
72584;SDS011;73873;40.084;32.908;2024-02-21T03:28:28;15.83;;;7.27;;
72584;SDS011;73873;40.084;32.908;2024-02-21T03:30:55;17.33;;;7.15;;
72584;SDS011;73873;40.084;32.908;2024-02-21T03:33:31;14.40;;;6.72;;
72584;SDS011;73873;40.084;32.908;2024-02-21T03:36:06;17.42;;;6.95;;
72584;SDS011;73873;40.084;32.908;2024-02-21T03:38:33;16.52;;;6.25;;
72584;SDS011;73873;40.084;32.908;2024-02-21T03:41:00;14.60;;;6.20;;
72584;SDS011;73873;40.084;32.908;2024-02-21T03:43:27;18.75;;;7.78;;
72584;SDS011;73873;40.084;32.908;2024-02-21T03:45:54;17.48;;;7.25;;
72584;SDS011;73873;40.084;32.908;2024-02-21T03:48:24;16.38;;;7.15;;
72584;SDS011;73873;40.084;32.908;2024-02-21T03:50:51;18.98;;;7.57;;
72584;SDS011;73873;40.084;32.908;2024-02-21T03:53:18;16.73;;;6.73;;
72584;SDS011;73873;40.084;32.908;2024-02-21T03:55:48;16.60;;;6.90;;
72584;SDS011;73873;40.084;32.908;2024-02-21T03:58:19;15.25;;;6.70;;
72584;SDS011;73873;40.084;32.908;2024-02-21T04:00:54;16.42;;;6.43;;
72584;SDS011;73873;40.084;32.908;2024-02-21T04:03:48;14.65;;;6.18;;
72584;SDS011;73873;40.084;32.908;2024-02-21T04:06:16;17.33;;;6.23;;
72584;SDS011;73873;40.084;32.908;2024-02-21T04:08:43;13.32;;;5.85;;
72584;SDS011;73873;40.084;32.908;2024-02-21T04:11:14;11.45;;;4.63;;
72584;SDS011;73873;40.084;32.908;2024-02-21T04:13:42;8.18;;;3.28;;
72584;SDS011;73873;40.084;32.908;2024-02-21T04:16:09;9.35;;;3.55;;
72584;SDS011;73873;40.084;32.908;2024-02-21T04:18:36;10.53;;;3.63;;
72584;SDS011;73873;40.084;32.908;2024-02-21T04:21:03;8.13;;;3.30;;
72584;SDS011;73873;40.084;32.908;2024-02-21T04:23:30;7.60;;;2.78;;
72584;SDS011;73873;40.084;32.908;2024-02-21T04:25:57;7.15;;;2.65;;
72584;SDS011;73873;40.084;32.908;2024-02-21T04:28:24;8.80;;;3.50;;
72584;SDS011;73873;40.084;32.908;2024-02-21T04:30:51;9.03;;;3.73;;
72584;SDS011;73873;40.084;32.908;2024-02-21T04:33:19;12.02;;;5.60;;
72584;SDS011;73873;40.084;32.908;2024-02-21T04:35:46;13.95;;;6.60;;
72584;SDS011;73873;40.084;32.908;2024-02-21T04:38:18;16.55;;;7.57;;
72584;SDS011;73873;40.084;32.908;2024-02-21T04:40:56;17.77;;;8.40;;
72584;SDS011;73873;40.084;32.908;2024-02-21T04:43:24;22.13;;;8.90;;
72584;SDS011;73873;40.084;32.908;2024-02-21T04:45:56;24.70;;;10.20;;
72584;SDS011;73873;40.084;32.908;2024-02-21T04:48:30;21.17;;;9.18;;
72584;SDS011;73873;40.084;32.908;2024-02-21T04:51:04;12.27;;;5.00;;
72584;SDS011;73873;40.084;32.908;2024-02-21T04:53:37;9.75;;;4.13;;
72584;SDS011;73873;40.084;32.908;2024-02-21T04:56:07;9.37;;;3.50;;
72584;SDS011;73873;40.084;32.908;2024-02-21T04:58:41;8.70;;;3.60;;
72584;SDS011;73873;40.084;32.908;2024-02-21T05:01:11;10.80;;;4.30;;
72584;SDS011;73873;40.084;32.908;2024-02-21T05:03:41;12.65;;;4.82;;
72584;SDS011;73873;40.084;32.908;2024-02-21T05:06:08;12.90;;;4.95;;
72584;SDS011;73873;40.084;32.908;2024-02-21T05:08:36;13.23;;;5.23;;
72584;SDS011;73873;40.084;32.908;2024-02-21T05:11:22;14.20;;;6.15;;
72584;SDS011;73873;40.084;32.908;2024-02-21T05:14:07;16.17;;;6.35;;
72584;SDS011;73873;40.084;32.908;2024-02-21T05:16:34;16.02;;;6.35;;
72584;SDS011;73873;40.084;32.908;2024-02-21T05:19:23;13.90;;;5.95;;
72584;SDS011;73873;40.084;32.908;2024-02-21T05:21:50;15.17;;;6.13;;
72584;SDS011;73873;40.084;32.908;2024-02-21T05:24:17;15.85;;;6.53;;
72584;SDS011;73873;40.084;32.908;2024-02-21T05:26:47;15.40;;;6.82;;
72584;SDS011;73873;40.084;32.908;2024-02-21T05:29:19;18.63;;;8.13;;
72584;SDS011;73873;40.084;32.908;2024-02-21T05:34:20;18.87;;;7.90;;
72584;SDS011;73873;40.084;32.908;2024-02-21T05:36:57;18.60;;;7.88;;
72584;SDS011;73873;40.084;32.908;2024-02-21T05:39:24;16.67;;;7.13;;
72584;SDS011;73873;40.084;32.908;2024-02-21T05:41:51;17.85;;;6.50;;
72584;SDS011;73873;40.084;32.908;2024-02-21T05:44:21;16.88;;;7.57;;
72584;SDS011;73873;40.084;32.908;2024-02-21T05:46:54;17.20;;;8.17;;
72584;SDS011;73873;40.084;32.908;2024-02-21T05:49:21;20.67;;;8.18;;
72584;SDS011;73873;40.084;32.908;2024-02-21T05:51:49;23.77;;;8.40;;
72584;SDS011;73873;40.084;32.908;2024-02-21T05:54:18;23.05;;;8.95;;
72584;SDS011;73873;40.084;32.908;2024-02-21T05:56:46;25.17;;;9.77;;
72584;SDS011;73873;40.084;32.908;2024-02-21T05:59:19;25.17;;;9.60;;
72584;SDS011;73873;40.084;32.908;2024-02-21T06:01:54;23.00;;;10.25;;
72584;SDS011;73873;40.084;32.908;2024-02-21T06:04:27;27.90;;;10.65;;
72584;SDS011;73873;40.084;32.908;2024-02-21T06:06:54;29.33;;;11.52;;
72584;SDS011;73873;40.084;32.908;2024-02-21T06:09:21;33.45;;;10.77;;
72584;SDS011;73873;40.084;32.908;2024-02-21T06:11:48;34.17;;;12.40;;
72584;SDS011;73873;40.084;32.908;2024-02-21T06:14:16;31.00;;;11.38;;
72584;SDS011;73873;40.084;32.908;2024-02-21T06:16:49;26.83;;;10.18;;
72584;SDS011;73873;40.084;32.908;2024-02-21T06:19:17;28.80;;;11.13;;
72584;SDS011;73873;40.084;32.908;2024-02-21T06:21:50;31.27;;;11.23;;
72584;SDS011;73873;40.084;32.908;2024-02-21T06:24:17;30.27;;;11.07;;
72584;SDS011;73873;40.084;32.908;2024-02-21T06:26:44;31.27;;;11.00;;
72584;SDS011;73873;40.084;32.908;2024-02-21T06:29:11;32.20;;;11.40;;
72584;SDS011;73873;40.084;32.908;2024-02-21T06:31:40;28.38;;;9.95;;
72584;SDS011;73873;40.084;32.908;2024-02-21T06:34:07;23.65;;;8.95;;
72584;SDS011;73873;40.084;32.908;2024-02-21T06:36:42;23.93;;;8.53;;
72584;SDS011;73873;40.084;32.908;2024-02-21T06:39:11;17.88;;;8.02;;
72584;SDS011;73873;40.084;32.908;2024-02-21T06:41:40;21.35;;;8.63;;
72584;SDS011;73873;40.084;32.908;2024-02-21T06:44:10;24.67;;;9.55;;
72584;SDS011;73873;40.084;32.908;2024-02-21T06:46:37;25.15;;;10.07;;
72584;SDS011;73873;40.084;32.908;2024-02-21T06:49:10;25.93;;;9.97;;
72584;SDS011;73873;40.084;32.908;2024-02-21T06:51:42;24.67;;;9.27;;
72584;SDS011;73873;40.084;32.908;2024-02-21T06:54:12;25.80;;;10.52;;
72584;SDS011;73873;40.084;32.908;2024-02-21T06:56:40;28.75;;;11.80;;
72584;SDS011;73873;40.084;32.908;2024-02-21T06:59:07;25.90;;;11.07;;
72584;SDS011;73873;40.084;32.908;2024-02-21T07:01:34;23.10;;;9.57;;
72584;SDS011;73873;40.084;32.908;2024-02-21T07:04:05;26.15;;;9.85;;
72584;SDS011;73873;40.084;32.908;2024-02-21T07:06:32;26.38;;;10.65;;
72584;SDS011;73873;40.084;32.908;2024-02-21T07:09:04;32.17;;;10.27;;
72584;SDS011;73873;40.084;32.908;2024-02-21T07:11:37;22.27;;;9.13;;
72584;SDS011;73873;40.084;32.908;2024-02-21T07:14:09;18.60;;;7.40;;
72584;SDS011;73873;40.084;32.908;2024-02-21T07:16:36;21.27;;;8.35;;
72584;SDS011;73873;40.084;32.908;2024-02-21T07:19:03;22.40;;;8.40;;
72584;SDS011;73873;40.084;32.908;2024-02-21T07:21:30;20.30;;;8.40;;
72584;SDS011;73873;40.084;32.908;2024-02-21T07:23:59;15.15;;;6.70;;
72584;SDS011;73873;40.084;32.908;2024-02-21T07:26:29;17.37;;;7.17;;
72584;SDS011;73873;40.084;32.908;2024-02-21T07:28:56;10.32;;;3.85;;
72584;SDS011;73873;40.084;32.908;2024-02-21T07:31:23;9.60;;;3.63;;
72584;SDS011;73873;40.084;32.908;2024-02-21T07:33:51;7.40;;;2.85;;
72584;SDS011;73873;40.084;32.908;2024-02-21T07:36:52;7.13;;;3.15;;
72584;SDS011;73873;40.084;32.908;2024-02-21T07:39:15;9.37;;;3.53;;
72584;SDS011;73873;40.084;32.908;2024-02-21T07:41:42;9.00;;;3.30;;
72584;SDS011;73873;40.084;32.908;2024-02-21T07:44:15;16.45;;;3.75;;
72584;SDS011;73873;40.084;32.908;2024-02-21T07:46:45;7.22;;;2.95;;
72584;SDS011;73873;40.084;32.908;2024-02-21T07:49:12;7.18;;;2.92;;
72584;SDS011;73873;40.084;32.908;2024-02-21T07:51:42;8.53;;;3.00;;
72584;SDS011;73873;40.084;32.908;2024-02-21T07:54:09;8.32;;;3.15;;
72584;SDS011;73873;40.084;32.908;2024-02-21T07:56:42;9.18;;;2.90;;
72584;SDS011;73873;40.084;32.908;2024-02-21T07:59:09;8.20;;;3.10;;
72584;SDS011;73873;40.084;32.908;2024-02-21T08:01:36;7.95;;;3.00;;
72584;SDS011;73873;40.084;32.908;2024-02-21T08:04:04;6.77;;;2.97;;
72584;SDS011;73873;40.084;32.908;2024-02-21T08:06:34;7.60;;;3.20;;
72584;SDS011;73873;40.084;32.908;2024-02-21T08:09:22;10.18;;;3.50;;
72584;SDS011;73873;40.084;32.908;2024-02-21T08:11:52;7.68;;;3.25;;
72584;SDS011;73873;40.084;32.908;2024-02-21T08:25:04;8.10;;;4.40;;
72584;SDS011;73873;40.084;32.908;2024-02-21T08:27:34;8.23;;;3.88;;
72584;SDS011;73873;40.084;32.908;2024-02-21T08:30:01;18.60;;;4.82;;
72584;SDS011;73873;40.084;32.908;2024-02-21T08:32:28;10.85;;;4.63;;
72584;SDS011;73873;40.084;32.908;2024-02-21T08:34:56;11.37;;;4.50;;
72584;SDS011;73873;40.084;32.908;2024-02-21T08:37:24;14.18;;;4.63;;
72584;SDS011;73873;40.084;32.908;2024-02-21T08:39:56;12.10;;;4.90;;
72584;SDS011;73873;40.084;32.908;2024-02-21T08:42:28;9.30;;;4.35;;
72584;SDS011;73873;40.084;32.908;2024-02-21T08:44:58;10.90;;;4.63;;
72584;SDS011;73873;40.084;32.908;2024-02-21T08:47:25;12.00;;;5.50;;
72584;SDS011;73873;40.084;32.908;2024-02-21T08:49:52;12.63;;;6.00;;
72584;SDS011;73873;40.084;32.908;2024-02-21T08:52:20;12.23;;;5.10;;
72584;SDS011;73873;40.084;32.908;2024-02-21T08:54:47;14.40;;;6.00;;
72584;SDS011;73873;40.084;32.908;2024-02-21T08:57:17;14.10;;;5.88;;
72584;SDS011;73873;40.084;32.908;2024-02-21T08:59:44;16.20;;;6.13;;
72584;SDS011;73873;40.084;32.908;2024-02-21T09:02:12;12.65;;;5.80;;
72584;SDS011;73873;40.084;32.908;2024-02-21T09:04:39;16.10;;;6.28;;
72584;SDS011;73873;40.084;32.908;2024-02-21T09:07:11;14.82;;;6.50;;
72584;SDS011;73873;40.084;32.908;2024-02-21T09:09:39;14.65;;;6.63;;
72584;SDS011;73873;40.084;32.908;2024-02-21T09:12:06;14.63;;;6.70;;
72584;SDS011;73873;40.084;32.908;2024-02-21T09:14:37;20.42;;;7.10;;
72584;SDS011;73873;40.084;32.908;2024-02-21T09:17:04;13.02;;;6.45;;
72584;SDS011;73873;40.084;32.908;2024-02-21T09:19:31;15.43;;;6.55;;
72584;SDS011;73873;40.084;32.908;2024-02-21T09:21:59;18.30;;;7.07;;
72584;SDS011;73873;40.084;32.908;2024-02-21T09:24:26;13.37;;;6.33;;
72584;SDS011;73873;40.084;32.908;2024-02-21T09:26:53;14.52;;;6.50;;
72584;SDS011;73873;40.084;32.908;2024-02-21T09:29:20;12.82;;;6.35;;
72584;SDS011;73873;40.084;32.908;2024-02-21T09:31:53;13.23;;;5.80;;
72584;SDS011;73873;40.084;32.908;2024-02-21T09:34:20;20.30;;;5.63;;
72584;SDS011;73873;40.084;32.908;2024-02-21T09:36:47;12.73;;;5.67;;
72584;SDS011;73873;40.084;32.908;2024-02-21T09:39:14;13.52;;;5.90;;
72584;SDS011;73873;40.084;32.908;2024-02-21T09:41:42;12.48;;;6.10;;
72584;SDS011;73873;40.084;32.908;2024-02-21T09:44:17;16.35;;;7.03;;
72584;SDS011;73873;40.084;32.908;2024-02-21T09:46:53;14.27;;;6.57;;
72584;SDS011;73873;40.084;32.908;2024-02-21T09:49:32;21.20;;;8.67;;
72584;SDS011;73873;40.084;32.908;2024-02-21T09:52:01;18.98;;;8.85;;
72584;SDS011;73873;40.084;32.908;2024-02-21T09:54:29;14.25;;;7.25;;
72584;SDS011;73873;40.084;32.908;2024-02-21T09:56:56;15.23;;;7.30;;
72584;SDS011;73873;40.084;32.908;2024-02-21T09:59:24;15.13;;;7.25;;
72584;SDS011;73873;40.084;32.908;2024-02-21T10:01:53;13.17;;;6.53;;
72584;SDS011;73873;40.084;32.908;2024-02-21T10:04:20;16.15;;;7.13;;
72584;SDS011;73873;40.084;32.908;2024-02-21T10:06:47;16.02;;;7.30;;
72584;SDS011;73873;40.084;32.908;2024-02-21T10:09:22;16.10;;;7.65;;
72584;SDS011;73873;40.084;32.908;2024-02-21T10:11:56;16.60;;;7.22;;
72584;SDS011;73873;40.084;32.908;2024-02-21T10:14:37;15.50;;;7.23;;
72584;SDS011;73873;40.084;32.908;2024-02-21T10:17:04;15.85;;;7.50;;
72584;SDS011;73873;40.084;32.908;2024-02-21T10:19:31;17.13;;;7.57;;
72584;SDS011;73873;40.084;32.908;2024-02-21T10:22:02;19.05;;;8.43;;
72584;SDS011;73873;40.084;32.908;2024-02-21T10:24:31;17.42;;;7.82;;
72584;SDS011;73873;40.084;32.908;2024-02-21T10:26:59;17.40;;;8.07;;
72584;SDS011;73873;40.084;32.908;2024-02-21T10:29:35;20.17;;;8.50;;
72584;SDS011;73873;40.084;32.908;2024-02-21T10:32:13;20.45;;;8.80;;
72584;SDS011;73873;40.084;32.908;2024-02-21T10:34:41;16.20;;;8.65;;
72584;SDS011;73873;40.084;32.908;2024-02-21T10:37:10;16.08;;;8.50;;
72584;SDS011;73873;40.084;32.908;2024-02-21T10:39:39;25.47;;;11.33;;
72584;SDS011;73873;40.084;32.908;2024-02-21T10:42:07;25.73;;;11.63;;
72584;SDS011;73873;40.084;32.908;2024-02-21T10:44:38;25.92;;;13.27;;
72584;SDS011;73873;40.084;32.908;2024-02-21T10:47:10;30.35;;;14.65;;
72584;SDS011;73873;40.084;32.908;2024-02-21T10:49:41;27.85;;;14.40;;
72584;SDS011;73873;40.084;32.908;2024-02-21T10:52:13;17.37;;;8.90;;
72584;SDS011;73873;40.084;32.908;2024-02-21T10:55:04;19.42;;;7.97;;
72584;SDS011;73873;40.084;32.908;2024-02-21T10:57:41;17.77;;;7.97;;
72584;SDS011;73873;40.084;32.908;2024-02-21T11:00:09;19.85;;;9.20;;
72584;SDS011;73873;40.084;32.908;2024-02-21T11:02:37;18.50;;;9.10;;
72584;SDS011;73873;40.084;32.908;2024-02-21T11:05:05;16.93;;;8.73;;
72584;SDS011;73873;40.084;32.908;2024-02-21T11:07:35;18.75;;;9.02;;
72584;SDS011;73873;40.084;32.908;2024-02-21T11:10:04;18.30;;;9.30;;
72584;SDS011;73873;40.084;32.908;2024-02-21T11:12:32;21.60;;;9.85;;
72584;SDS011;73873;40.084;32.908;2024-02-21T11:15:03;19.60;;;9.63;;
72584;SDS011;73873;40.084;32.908;2024-02-21T11:17:31;19.80;;;9.80;;
72584;SDS011;73873;40.084;32.908;2024-02-21T11:20:10;14.73;;;7.18;;
72584;SDS011;73873;40.084;32.908;2024-02-21T11:22:42;15.70;;;6.78;;
72584;SDS011;73873;40.084;32.908;2024-02-21T11:25:10;14.95;;;7.20;;
72584;SDS011;73873;40.084;32.908;2024-02-21T11:27:45;16.83;;;7.63;;
72584;SDS011;73873;40.084;32.908;2024-02-21T11:30:15;14.23;;;5.80;;
72584;SDS011;73873;40.084;32.908;2024-02-21T11:32:42;15.40;;;7.40;;
72584;SDS011;73873;40.084;32.908;2024-02-21T11:35:09;12.18;;;5.90;;
72584;SDS011;73873;40.084;32.908;2024-02-21T11:37:46;19.25;;;7.05;;
72584;SDS011;73873;40.084;32.908;2024-02-21T11:40:13;16.27;;;6.97;;
72584;SDS011;73873;40.084;32.908;2024-02-21T11:42:43;13.37;;;6.03;;
72584;SDS011;73873;40.084;32.908;2024-02-21T11:45:11;14.07;;;6.10;;
72584;SDS011;73873;40.084;32.908;2024-02-21T11:47:38;12.93;;;6.60;;
72584;SDS011;73873;40.084;32.908;2024-02-21T11:50:09;14.20;;;7.00;;
72584;SDS011;73873;40.084;32.908;2024-02-21T11:52:39;13.80;;;6.72;;
72584;SDS011;73873;40.084;32.908;2024-02-21T11:55:09;13.53;;;6.60;;
72584;SDS011;73873;40.084;32.908;2024-02-21T11:57:37;14.18;;;6.15;;
72584;SDS011;73873;40.084;32.908;2024-02-21T12:03:01;12.82;;;5.88;;
72584;SDS011;73873;40.084;32.908;2024-02-21T12:05:30;11.98;;;5.85;;
72584;SDS011;73873;40.084;32.908;2024-02-21T12:07:58;12.00;;;5.70;;
72584;SDS011;73873;40.084;32.908;2024-02-21T12:10:26;12.52;;;5.68;;
72584;SDS011;73873;40.084;32.908;2024-02-21T12:12:53;13.20;;;5.80;;
72584;SDS011;73873;40.084;32.908;2024-02-21T12:15:20;11.60;;;5.50;;
72584;SDS011;73873;40.084;32.908;2024-02-21T12:17:48;12.15;;;5.72;;
72584;SDS011;73873;40.084;32.908;2024-02-21T12:20:16;10.77;;;5.30;;
72584;SDS011;73873;40.084;32.908;2024-02-21T12:22:43;11.77;;;5.35;;
72584;SDS011;73873;40.084;32.908;2024-02-21T12:25:17;9.68;;;4.80;;
72584;SDS011;73873;40.084;32.908;2024-02-21T12:27:47;16.20;;;6.43;;
72584;SDS011;73873;40.084;32.908;2024-02-21T12:30:14;92.72;;;31.80;;
72584;SDS011;73873;40.084;32.908;2024-02-21T12:32:42;33.60;;;15.27;;
72584;SDS011;73873;40.084;32.908;2024-02-21T12:35:09;13.82;;;6.25;;
72584;SDS011;73873;40.084;32.908;2024-02-21T12:37:36;9.88;;;4.50;;
72584;SDS011;73873;40.084;32.908;2024-02-21T12:40:06;8.85;;;4.72;;
72584;SDS011;73873;40.084;32.908;2024-02-21T12:42:33;11.00;;;4.63;;
72584;SDS011;73873;40.084;32.908;2024-02-21T12:45:02;10.30;;;4.80;;
72584;SDS011;73873;40.084;32.908;2024-02-21T12:47:29;11.18;;;5.10;;
72584;SDS011;73873;40.084;32.908;2024-02-21T12:49:56;9.27;;;4.55;;
72584;SDS011;73873;40.084;32.908;2024-02-21T12:52:38;12.70;;;5.07;;
72584;SDS011;73873;40.084;32.908;2024-02-21T12:55:06;11.52;;;5.40;;
72584;SDS011;73873;40.084;32.908;2024-02-21T12:57:33;12.27;;;4.90;;
72584;SDS011;73873;40.084;32.908;2024-02-21T13:00:00;10.25;;;5.07;;
72584;SDS011;73873;40.084;32.908;2024-02-21T13:02:27;9.65;;;4.72;;
72584;SDS011;73873;40.084;32.908;2024-02-21T13:04:54;11.90;;;5.43;;
72584;SDS011;73873;40.084;32.908;2024-02-21T13:07:22;10.50;;;4.47;;
72584;SDS011;73873;40.084;32.908;2024-02-21T13:09:49;9.07;;;4.37;;
72584;SDS011;73873;40.084;32.908;2024-02-21T13:12:16;10.15;;;4.40;;
72584;SDS011;73873;40.084;32.908;2024-02-21T13:14:43;9.10;;;4.25;;
72584;SDS011;73873;40.084;32.908;2024-02-21T13:17:10;9.95;;;4.50;;
72584;SDS011;73873;40.084;32.908;2024-02-21T13:19:37;12.95;;;4.85;;
72584;SDS011;73873;40.084;32.908;2024-02-21T13:22:05;11.00;;;4.97;;
72584;SDS011;73873;40.084;32.908;2024-02-21T13:24:35;10.38;;;4.70;;
72584;SDS011;73873;40.084;32.908;2024-02-21T13:27:02;11.32;;;4.75;;
72584;SDS011;73873;40.084;32.908;2024-02-21T13:29:32;11.95;;;4.60;;
72584;SDS011;73873;40.084;32.908;2024-02-21T13:31:59;10.45;;;4.93;;
72584;SDS011;73873;40.084;32.908;2024-02-21T13:34:26;9.50;;;4.67;;
72584;SDS011;73873;40.084;32.908;2024-02-21T13:36:54;12.02;;;4.80;;
72584;SDS011;73873;40.084;32.908;2024-02-21T13:39:22;11.85;;;5.22;;
72584;SDS011;73873;40.084;32.908;2024-02-21T13:41:50;12.65;;;5.30;;
72584;SDS011;73873;40.084;32.908;2024-02-21T13:44:19;11.60;;;5.50;;
72584;SDS011;73873;40.084;32.908;2024-02-21T13:46:46;13.87;;;5.20;;
72584;SDS011;73873;40.084;32.908;2024-02-21T13:49:16;10.00;;;4.50;;
72584;SDS011;73873;40.084;32.908;2024-02-21T13:51:46;11.50;;;5.05;;
72584;SDS011;73873;40.084;32.908;2024-02-21T13:54:16;10.50;;;4.82;;
72584;SDS011;73873;40.084;32.908;2024-02-21T13:56:43;10.23;;;4.32;;
72584;SDS011;73873;40.084;32.908;2024-02-21T13:59:12;11.50;;;4.40;;
72584;SDS011;73873;40.084;32.908;2024-02-21T14:01:40;9.63;;;4.68;;
72584;SDS011;73873;40.084;32.908;2024-02-21T14:04:08;12.52;;;5.47;;
72584;SDS011;73873;40.084;32.908;2024-02-21T14:06:40;9.90;;;4.82;;
72584;SDS011;73873;40.084;32.908;2024-02-21T14:09:07;11.45;;;4.95;;
72584;SDS011;73873;40.084;32.908;2024-02-21T14:11:34;10.03;;;4.93;;
72584;SDS011;73873;40.084;32.908;2024-02-21T14:14:04;12.70;;;5.00;;
72584;SDS011;73873;40.084;32.908;2024-02-21T14:16:34;11.98;;;5.93;;
72584;SDS011;73873;40.084;32.908;2024-02-21T14:19:02;11.07;;;4.80;;
72584;SDS011;73873;40.084;32.908;2024-02-21T14:21:30;8.98;;;4.15;;
72584;SDS011;73873;40.084;32.908;2024-02-21T14:23:57;9.60;;;4.23;;
72584;SDS011;73873;40.084;32.908;2024-02-21T14:26:26;8.50;;;3.92;;
72584;SDS011;73873;40.084;32.908;2024-02-21T14:28:54;11.30;;;4.32;;
72584;SDS011;73873;40.084;32.908;2024-02-21T14:31:23;10.15;;;4.68;;
72584;SDS011;73873;40.084;32.908;2024-02-21T14:33:55;10.32;;;4.60;;
72584;SDS011;73873;40.084;32.908;2024-02-21T14:36:23;10.17;;;4.90;;
72584;SDS011;73873;40.084;32.908;2024-02-21T14:38:51;10.23;;;4.50;;
72584;SDS011;73873;40.084;32.908;2024-02-21T14:41:21;9.43;;;4.50;;
72584;SDS011;73873;40.084;32.908;2024-02-21T14:43:52;9.75;;;4.97;;
72584;SDS011;73873;40.084;32.908;2024-02-21T14:46:21;10.25;;;4.35;;
72584;SDS011;73873;40.084;32.908;2024-02-21T14:48:49;11.27;;;4.80;;
72584;SDS011;73873;40.084;32.908;2024-02-21T14:51:17;10.98;;;4.95;;
72584;SDS011;73873;40.084;32.908;2024-02-21T14:53:54;10.43;;;4.95;;